Time,TemperatureF,DewpointF,PressureIn,WindDirection,WindDirectionDegrees,WindSpeedMPH,WindSpeedGustMPH,Humidity,HourlyPrecipIn,Conditions,Clouds,dailyrainin,SolarRadiationWatts/m^2,SoftwareType,DateUTC
2013-01-17 00:02:00,44.3,34.0,30.29,WSW,248,3.5,3.5,67,0.00,CLR,SKC,0.00,0.0,WeatherDisplay:10.37,2013-01-17 06:02:00,
2013-01-17 00:07:00,44.3,33.7,30.29,WSW,248,3.5,3.5,66,0.00,CLR,SKC,0.00,0.0,WeatherDisplay:10.37,2013-01-17 06:07:00,
2013-01-17 00:12:00,44.5,34.2,30.29,WSW,248,3.5,3.5,67,0.00,CLR,SKC,0.00,0.0,WeatherDisplay:10.37,2013-01-17 06:12:00,
2013-01-17 00:17:00,44.6,33.9,30.29,WSW,248,3.5,3.5,66,0.00,CLR,SKC,0.00,0.0,WeatherDisplay:10.37,2013-01-17 06:17:00,
2013-01-17 00:22:00,44.7,34.0,30.29,WSW,248,2.3,2.3,66,0.00,CLR,SKC,0.00,0.0,WeatherDisplay:10.37,2013-01-17 06:22:00,
2013-01-17 00:27:00,44.6,33.9,30.29,WSW,246,3.5,3.5,66,0.00,CLR,SKC,0.00,0.0,WeatherDisplay:10.37,2013-01-17 06:27:00,
2013-01-17 00:32:00,44.6,33.2,30.29,WSW,257,3.5,3.5,64,0.00,CLR,SKC,0.00,0.0,WeatherDisplay:10.37,2013-01-17 06:32:00,
2013-01-17 00:37:00,44.5,32.3,30.29,WSW,257,3.5,3.5,62,0.00,CLR,SKC,0.00,0.0,WeatherDisplay:10.37,2013-01-17 06:37:00,
2013-01-17 00:42:00,44.5,31.9,30.29,WSW,257,3.5,3.5,61,0.00,CLR,SKC,0.00,0.0,WeatherDisplay:10.37,2013-01-17 06:42:00,
2013-01-17 00:47:00,44.5,33.1,30.29,WSW,257,3.5,3.5,64,0.00,CLR,SKC,0.00,0.0,WeatherDisplay:10.37,2013-01-17 06:47:00,
2013-01-17 00:52:00,44.5,32.3,30.29,WSW,257,3.5,3.5,62,0.00,CLR,SKC,0.00,0.0,WeatherDisplay:10.37,2013-01-17 06:52:00,
2013-01-17 00:57:00,44.5,32.3,30.30,WSW,257,3.5,3.5,62,0.00,CLR,SKC,0.00,0.0,WeatherDisplay:10.37,2013-01-17 06:57:00,
2013-01-17 01:02:00,44.5,31.9,30.30,WSW,257,2.3,2.3,61,0.00,CLR,SKC,0.00,0.0,WeatherDisplay:10.37,2013-01-17 07:02:00,
2013-01-17 01:07:00,44.6,32.0,30.30,WSW,257,3.5,3.5,61,0.00,CLR,SKC,0.00,0.0,WeatherDisplay:10.37,2013-01-17 07:07:00,
2013-01-17 01:12:00,44.6,31.6,30.30,WSW,254,3.5,3.5,60,0.00,CLR,SKC,0.00,0.0,WeatherDisplay:10.37,2013-01-17 07:12:00,
2013-01-17 01:17:00,44.4,31.4,30.30,WSW,250,4.0,4.0,60,0.00,CLR,SKC,0.00,0.0,WeatherDisplay:10.37,2013-01-17 07:17:00,
2013-01-17 01:22:00,44.3,31.7,30.30,WSW,250,3.5,3.5,61,0.00,CLR,SKC,0.00,0.0,WeatherDisplay:10.37,2013-01-17 07:22:00,
2013-01-17 01:27:00,44.1,31.5,30.30,WSW,250,3.5,3.5,61,0.00,CLR,SKC,0.00,0.0,WeatherDisplay:10.37,2013-01-17 07:27:00,
2013-01-17 01:32:00,44.0,31.0,30.30,WSW,247,4.0,4.0,60,0.00,CLR,SKC,0.00,0.0,WeatherDisplay:10.37,2013-01-17 07:32:00,
2013-01-17 01:37:00,44.0,30.6,30.30,WSW,238,2.3,2.3,59,0.00,CLR,SKC,0.00,0.0,WeatherDisplay:10.37,2013-01-17 07:37:00,
2013-01-17 01:42:00,44.0,30.6,30.30,WSW,244,3.5,3.6,59,0.00,CLR,SKC,0.00,0.0,WeatherDisplay:10.37,2013-01-17 07:42:00,
2013-01-17 01:47:00,43.9,30.9,30.30,WSW,252,3.5,3.5,60,0.00,CLR,SKC,0.00,0.0,WeatherDisplay:10.37,2013-01-17 07:47:00,
2013-01-17 01:52:00,43.9,30.5,30.30,WSW,246,4.6,4.6,59,0.00,CLR,SKC,0.00,0.0,WeatherDisplay:10.37,2013-01-17 07:52:00,
2013-01-17 01:57:00,43.9,30.1,30.30,WSW,252,3.5,3.5,58,0.00,CLR,SKC,0.00,0.0,WeatherDisplay:10.37,2013-01-17 07:57:00,
2013-01-17 02:02:00,43.8,30.0,30.30,WSW,254,3.5,3.5,58,0.00,CLR,SKC,0.00,0.0,WeatherDisplay:10.37,2013-01-17 08:02:00,
2013-01-17 02:07:00,43.7,30.3,30.30,WSW,254,3.5,3.5,59,0.00,CLR,SKC,0.00,0.0,WeatherDisplay:10.37,2013-01-17 08:07:00,
2013-01-17 02:12:00,43.6,30.2,30.30,WSW,258,4.6,4.6,59,0.00,CLR,SKC,0.00,0.0,WeatherDisplay:10.37,2013-01-17 08:12:00,
2013-01-17 02:17:00,43.5,30.5,30.30,WSW,246,3.5,3.5,60,0.00,CLR,SKC,0.00,0.0,WeatherDisplay:10.37,2013-01-17 08:17:00,
2013-01-17 02:22:00,43.4,31.2,30.30,WSW,251,4.6,4.6,62,0.00,CLR,SKC,0.00,0.0,WeatherDisplay:10.37,2013-01-17 08:22:00,
2013-01-17 02:27:00,43.3,31.1,30.31,West,261,5.8,5.8,62,0.00,CLR,SKC,0.00,0.0,WeatherDisplay:10.37,2013-01-17 08:27:00,
2013-01-17 02:32:00,43.2,30.6,30.31,WSW,252,5.8,5.8,61,0.00,CLR,SKC,0.00,0.0,WeatherDisplay:10.37,2013-01-17 08:32:00,
2013-01-17 02:37:00,43.1,29.7,30.31,WSW,254,4.6,4.6,59,0.00,CLR,SKC,0.00,0.0,WeatherDisplay:10.37,2013-01-17 08:37:00,
2013-01-17 02:42:00,43.0,29.2,30.30,WSW,240,5.8,5.8,58,0.00,CLR,SKC,0.00,0.0,WeatherDisplay:10.37,2013-01-17 08:42:00,
2013-01-17 02:47:00,43.0,29.6,30.30,WSW,257,3.5,3.5,59,0.00,CLR,SKC,0.00,0.0,WeatherDisplay:10.37,2013-01-17 08:47:00,
2013-01-17 02:52:00,42.9,30.0,30.30,WSW,248,4.6,4.6,60,0.00,CLR,SKC,0.00,0.0,WeatherDisplay:10.37,2013-01-17 08:52:00,
2013-01-17 02:57:00,42.8,29.9,30.30,WSW,252,4.6,4.6,60,0.00,CLR,SKC,0.00,0.0,WeatherDisplay:10.37,2013-01-17 08:57:00,
2013-01-17 03:02:00,42.6,29.7,30.30,WSW,243,4.6,4.6,60,0.00,CLR,SKC,0.00,0.0,WeatherDisplay:10.37,2013-01-17 09:02:00,
2013-01-17 03:07:00,42.5,29.6,30.30,WSW,248,5.8,5.8,60,0.00,CLR,SKC,0.00,0.0,WeatherDisplay:10.37,2013-01-17 09:07:00,
2013-01-17 03:12:00,42.3,29.0,30.31,WSW,256,4.6,4.6,59,0.00,CLR,SKC,0.00,0.0,WeatherDisplay:10.37,2013-01-17 09:12:00,
2013-01-17 03:17:00,42.3,29.0,30.31,SW,224,3.5,3.5,59,0.00,CLR,SKC,0.00,0.0,WeatherDisplay:10.37,2013-01-17 09:17:00,
2013-01-17 03:22:00,42.3,29.8,30.31,WSW,250,3.5,3.5,61,0.00,CLR,SKC,0.00,0.0,WeatherDisplay:10.37,2013-01-17 09:22:00,
2013-01-17 03:27:00,42.5,31.2,30.31,West,266,6.0,6.0,64,0.00,CLR,SKC,0.00,0.0,WeatherDisplay:10.37,2013-01-17 09:27:00,
2013-01-17 03:32:00,43.0,32.4,30.31,WSW,257,4.6,4.6,66,0.00,CLR,SKC,0.00,0.0,WeatherDisplay:10.37,2013-01-17 09:32:00,
2013-01-17 03:37:00,43.0,31.6,30.31,West,261,3.5,3.5,64,0.00,CLR,SKC,0.00,0.0,WeatherDisplay:10.37,2013-01-17 09:37:00,
2013-01-17 03:42:00,43.0,32.4,30.31,West,269,7.0,7.0,66,0.00,CLR,SKC,0.00,0.0,WeatherDisplay:10.37,2013-01-17 09:42:00,
2013-01-17 03:47:00,43.8,30.0,30.31,West,267,9.2,9.2,58,0.00,CLR,SKC,0.00,0.0,WeatherDisplay:10.37,2013-01-17 09:47:00,
2013-01-17 03:52:00,44.4,31.8,30.31,West,263,8.1,8.1,61,0.00,CLR,SKC,0.00,0.0,WeatherDisplay:10.37,2013-01-17 09:52:00,
2013-01-17 03:57:00,44.6,31.6,30.32,West,265,9.2,9.2,60,0.00,CLR,SKC,0.00,0.0,WeatherDisplay:10.37,2013-01-17 09:57:00,
2013-01-17 04:02:00,44.6,30.7,30.32,West,266,10.4,10.4,58,0.00,CLR,SKC,0.00,0.0,WeatherDisplay:10.37,2013-01-17 10:02:00,
2013-01-17 04:07:00,44.8,31.3,30.32,West,275,10.4,10.4,59,0.00,CLR,SKC,0.00,0.0,WeatherDisplay:10.37,2013-01-17 10:07:00,
2013-01-17 04:12:00,44.9,31.0,30.31,West,270,11.5,11.5,58,0.00,CLR,SKC,0.00,0.0,WeatherDisplay:10.37,2013-01-17 10:12:00,
2013-01-17 04:17:00,45.0,29.3,30.31,West,264,11.5,11.5,54,0.00,CLR,SKC,0.00,0.0,WeatherDisplay:10.37,2013-01-17 10:17:00,
2013-01-17 04:22:00,44.7,29.5,30.31,West,269,10.0,10.0,55,0.00,CLR,SKC,0.00,0.0,WeatherDisplay:10.37,2013-01-17 10:22:00,
2013-01-17 04:27:00,44.5,29.3,30.32,West,275,10.4,10.4,55,0.00,CLR,SKC,0.00,0.0,WeatherDisplay:10.37,2013-01-17 10:27:00,
2013-01-17 04:32:00,44.0,29.7,30.32,West,267,9.2,9.2,57,0.00,CLR,SKC,0.00,0.0,WeatherDisplay:10.37,2013-01-17 10:32:00,
2013-01-17 04:37:00,43.7,31.1,30.32,West,265,9.2,9.2,61,0.00,CLR,SKC,0.00,0.0,WeatherDisplay:10.37,2013-01-17 10:37:00,
2013-01-17 04:42:00,43.5,31.7,30.32,West,263,7.0,7.0,63,0.00,CLR,SKC,0.00,0.0,WeatherDisplay:10.37,2013-01-17 10:42:00,
2013-01-17 04:47:00,43.4,31.6,30.32,West,265,5.8,5.8,63,0.00,CLR,SKC,0.00,0.0,WeatherDisplay:10.37,2013-01-17 10:47:00,
2013-01-17 04:52:00,43.4,32.0,30.32,West,263,5.8,5.8,64,0.00,CLR,SKC,0.00,0.0,WeatherDisplay:10.37,2013-01-17 10:52:00,
2013-01-17 04:57:00,43.4,32.4,30.32,West,269,4.6,4.6,65,0.00,CLR,SKC,0.00,0.0,WeatherDisplay:10.37,2013-01-17 10:57:00,
2013-01-17 05:02:00,43.3,32.3,30.32,SW,232,4.6,4.6,65,0.00,CLR,SKC,0.00,0.0,WeatherDisplay:10.37,2013-01-17 11:02:00,
2013-01-17 05:07:00,43.1,31.7,30.32,West,259,4.6,4.6,64,0.00,CLR,SKC,0.00,0.0,WeatherDisplay:10.37,2013-01-17 11:07:00,
2013-01-17 05:12:00,42.9,31.6,30.32,WSW,252,4.0,4.0,64,0.00,CLR,SKC,0.00,0.0,WeatherDisplay:10.37,2013-01-17 11:12:00,
2013-01-17 05:17:00,42.7,31.4,30.32,West,262,4.6,4.6,64,0.00,CLR,SKC,0.00,0.0,WeatherDisplay:10.37,2013-01-17 11:17:00,
2013-01-17 05:22:00,42.7,32.1,30.32,West,261,4.6,4.6,66,0.00,CLR,SKC,0.00,0.0,WeatherDisplay:10.37,2013-01-17 11:22:00,
2013-01-17 05:27:00,43.0,31.3,30.32,West,267,6.9,6.9,63,0.00,CLR,SKC,0.00,0.0,WeatherDisplay:10.37,2013-01-17 11:27:00,
2013-01-17 05:32:00,43.2,32.6,30.32,WSW,257,4.6,4.6,66,0.00,CLR,SKC,0.00,0.0,WeatherDisplay:10.37,2013-01-17 11:32:00,
2013-01-17 05:37:00,42.8,31.8,30.32,WSW,254,5.8,5.8,65,0.00,CLR,SKC,0.00,0.0,WeatherDisplay:10.37,2013-01-17 11:37:00,
2013-01-17 05:42:00,43.2,31.8,30.32,West,272,11.0,11.0,64,0.00,CLR,SKC,0.00,0.0,WeatherDisplay:10.37,2013-01-17 11:42:00,
2013-01-17 05:47:00,43.3,31.5,30.32,West,263,5.8,5.8,63,0.00,CLR,SKC,0.00,0.0,WeatherDisplay:10.37,2013-01-17 11:47:00,
2013-01-17 05:52:00,42.8,31.1,30.32,West,266,5.0,5.0,63,0.00,CLR,SKC,0.00,0.0,WeatherDisplay:10.37,2013-01-17 11:52:00,
2013-01-17 05:57:00,42.5,31.2,30.33,West,259,6.9,6.9,64,0.00,CLR,SKC,0.00,0.0,WeatherDisplay:10.37,2013-01-17 11:57:00,
2013-01-17 06:02:00,42.9,31.6,30.33,West,267,6.9,6.9,64,0.00,CLR,SKC,0.00,0.0,WeatherDisplay:10.37,2013-01-17 12:02:00,
2013-01-17 06:07:00,43.1,32.1,30.33,West,259,6.9,6.9,65,0.00,CLR,SKC,0.00,0.0,WeatherDisplay:10.37,2013-01-17 12:07:00,
2013-01-17 06:12:00,43.1,32.1,30.33,West,271,7.0,7.0,65,0.00,CLR,SKC,0.00,0.0,WeatherDisplay:10.37,2013-01-17 12:12:00,
2013-01-17 06:17:00,42.9,31.6,30.33,West,278,6.0,6.0,64,0.00,CLR,SKC,0.00,0.0,WeatherDisplay:10.37,2013-01-17 12:17:00,
2013-01-17 06:22:00,42.6,30.5,30.33,WNW,290,6.9,6.9,62,0.00,CLR,SKC,0.00,0.0,WeatherDisplay:10.37,2013-01-17 12:22:00,
2013-01-17 06:27:00,42.3,30.6,30.33,West,271,6.9,6.9,63,0.00,CLR,SKC,0.00,0.0,WeatherDisplay:10.37,2013-01-17 12:27:00,
2013-01-17 06:32:00,42.2,31.3,30.33,West,273,6.9,6.9,65,0.00,CLR,SKC,0.00,0.0,WeatherDisplay:10.37,2013-01-17 12:32:00,
2013-01-17 06:37:00,42.1,31.6,30.33,West,273,7.0,7.0,66,0.00,CLR,SKC,0.00,0.0,WeatherDisplay:10.37,2013-01-17 12:37:00,
2013-01-17 06:42:00,42.0,31.8,30.33,West,272,6.9,6.9,67,0.00,CLR,SKC,0.00,0.0,WeatherDisplay:10.37,2013-01-17 12:42:00,
2013-01-17 06:47:00,41.9,31.4,30.33,WNW,289,9.0,9.0,66,0.00,CLR,SKC,0.00,0.0,WeatherDisplay:10.37,2013-01-17 12:47:00,
2013-01-17 06:52:00,41.9,30.6,30.33,West,279,8.1,8.1,64,0.00,CLR,SKC,0.00,0.0,WeatherDisplay:10.37,2013-01-17 12:52:00,
2013-01-17 06:57:00,41.8,31.3,30.35,WNW,290,6.0,6.0,66,0.00,CLR,SKC,0.00,0.0,WeatherDisplay:10.37,2013-01-17 12:57:00,
2013-01-17 07:02:00,41.8,31.3,30.35,West,271,6.9,6.9,66,0.00,CLR,SKC,0.00,0.0,WeatherDisplay:10.37,2013-01-17 13:02:00,
2013-01-17 07:07:00,41.8,31.3,30.35,West,262,6.9,6.9,66,0.00,CLR,SKC,0.00,0.0,WeatherDisplay:10.37,2013-01-17 13:07:00,
2013-01-17 07:12:00,41.8,31.3,30.35,West,277,5.8,5.8,66,0.00,CLR,SKC,0.00,0.0,WeatherDisplay:10.37,2013-01-17 13:12:00,
2013-01-17 07:17:00,41.9,31.4,30.35,WNW,283,4.6,4.6,66,0.00,CLR,SKC,0.00,0.0,WeatherDisplay:10.37,2013-01-17 13:17:00,
2013-01-17 07:22:00,42.0,31.5,30.35,West,277,5.8,5.8,66,0.00,CLR,SKC,0.00,5.0,WeatherDisplay:10.37,2013-01-17 13:22:00,
2013-01-17 07:27:00,42.1,31.6,30.35,WNW,288,5.8,5.8,66,0.00,CLR,SKC,0.00,7.0,WeatherDisplay:10.37,2013-01-17 13:27:00,
2013-01-17 07:32:00,42.3,31.7,30.35,WNW,288,5.8,5.8,66,0.00,CLR,SKC,0.00,11.0,WeatherDisplay:10.37,2013-01-17 13:32:00,
2013-01-17 07:37:00,42.5,32.3,30.35,West,274,5.8,5.8,67,0.00,CLR,SKC,0.00,25.0,WeatherDisplay:10.37,2013-01-17 13:37:00,
2013-01-17 07:42:00,42.7,32.5,30.36,WNW,286,6.0,6.0,67,0.00,CLR,SKC,0.00,58.0,WeatherDisplay:10.37,2013-01-17 13:42:00,
2013-01-17 07:47:00,42.9,32.3,30.36,West,277,5.8,5.8,66,0.00,CLR,SKC,0.00,76.0,WeatherDisplay:10.37,2013-01-17 13:47:00,
2013-01-17 07:52:00,43.0,32.0,30.36,West,280,5.8,5.8,65,0.00,CLR,SKC,0.00,88.0,WeatherDisplay:10.37,2013-01-17 13:52:00,
2013-01-17 07:57:00,43.1,32.5,30.36,WNW,286,5.8,5.8,66,0.00,CLR,SKC,0.00,97.0,WeatherDisplay:10.37,2013-01-17 13:57:00,
2013-01-17 08:02:00,43.1,32.9,30.36,West,277,5.8,5.8,67,0.00,CLR,SKC,0.00,111.0,WeatherDisplay:10.37,2013-01-17 14:02:00,
2013-01-17 08:07:00,43.0,32.8,30.36,WNW,283,7.0,7.0,67,0.00,CLR,SKC,0.00,134.0,WeatherDisplay:10.37,2013-01-17 14:07:00,
2013-01-17 08:12:00,42.9,32.7,30.37,West,277,7.0,7.0,67,0.00,CLR,SKC,0.00,165.0,WeatherDisplay:10.37,2013-01-17 14:12:00,
2013-01-17 08:17:00,42.8,32.6,30.37,West,278,7.0,7.0,67,0.00,CLR,SKC,0.00,193.0,WeatherDisplay:10.37,2013-01-17 14:17:00,
2013-01-17 08:22:00,42.8,33.0,30.37,WNW,290,6.9,6.9,68,0.00,CLR,SKC,0.00,211.0,WeatherDisplay:10.37,2013-01-17 14:22:00,
2013-01-17 08:27:00,43.0,32.8,30.38,West,279,6.9,6.9,67,0.00,CLR,SKC,0.00,227.0,WeatherDisplay:10.37,2013-01-17 14:27:00,
2013-01-17 08:32:00,43.4,33.5,30.38,West,279,6.9,6.9,68,0.00,CLR,SKC,0.00,244.0,WeatherDisplay:10.37,2013-01-17 14:32:00,
2013-01-17 08:37:00,43.8,33.6,30.38,WNW,297,6.9,6.9,67,0.00,CLR,SKC,0.00,260.0,WeatherDisplay:10.37,2013-01-17 14:37:00,
2013-01-17 08:42:00,44.4,34.1,30.38,NNW,331,6.9,6.9,67,0.00,CLR,SKC,0.00,274.0,WeatherDisplay:10.37,2013-01-17 14:42:00,
2013-01-17 08:47:00,45.6,35.6,30.38,NNW,334,10.4,10.4,68,0.00,CLR,SKC,0.00,292.0,WeatherDisplay:10.37,2013-01-17 14:47:00,
2013-01-17 08:52:00,46.6,36.2,30.38,WNW,302,6.9,6.9,67,0.00,CLR,SKC,0.00,308.0,WeatherDisplay:10.37,2013-01-17 14:52:00,
2013-01-17 08:57:00,47.0,36.2,30.39,NW,316,11.5,11.5,66,0.00,CLR,SKC,0.00,323.0,WeatherDisplay:10.37,2013-01-17 14:57:00,
2013-01-17 09:02:00,47.4,36.6,30.39,WNW,302,8.1,8.1,66,0.00,CLR,SKC,0.00,339.0,WeatherDisplay:10.37,2013-01-17 15:02:00,
2013-01-17 09:07:00,47.5,36.3,30.39,NW,312,6.9,6.9,65,0.00,CLR,SKC,0.00,355.0,WeatherDisplay:10.37,2013-01-17 15:07:00,
2013-01-17 09:12:00,47.5,36.3,30.39,NNW,327,9.2,9.2,65,0.00,CLR,SKC,0.00,376.0,WeatherDisplay:10.37,2013-01-17 15:12:00,
2013-01-17 09:17:00,47.6,36.4,30.39,NW,309,9.2,9.2,65,0.00,CLR,SKC,0.00,371.0,WeatherDisplay:10.37,2013-01-17 15:17:00,
2013-01-17 09:22:00,47.7,36.9,30.39,NW,324,11.5,11.5,66,0.00,CLR,SKC,0.00,392.0,WeatherDisplay:10.37,2013-01-17 15:22:00,
2013-01-17 09:27:00,47.8,37.0,30.40,WNW,284,6.9,6.9,66,0.00,CLR,SKC,0.00,415.0,WeatherDisplay:10.37,2013-01-17 15:27:00,
2013-01-17 09:32:00,48.0,36.8,30.40,WNW,288,11.5,11.5,65,0.00,CLR,SKC,0.00,425.0,WeatherDisplay:10.37,2013-01-17 15:32:00,
2013-01-17 09:37:00,48.2,37.0,30.40,WNW,303,10.4,10.4,65,0.00,CLR,SKC,0.00,441.0,WeatherDisplay:10.37,2013-01-17 15:37:00,
2013-01-17 09:42:00,48.3,36.7,30.41,WNW,290,11.5,11.5,64,0.00,CLR,SKC,0.00,455.0,WeatherDisplay:10.37,2013-01-17 15:42:00,
2013-01-17 09:47:00,48.6,37.4,30.41,NW,313,10.4,10.4,65,0.00,CLR,SKC,0.00,469.0,WeatherDisplay:10.37,2013-01-17 15:47:00,
2013-01-17 09:52:00,48.8,37.6,30.41,WNW,292,10.4,10.4,65,0.00,CLR,SKC,0.00,478.0,WeatherDisplay:10.37,2013-01-17 15:52:00,
2013-01-17 09:57:00,49.0,37.7,30.42,West,281,10.0,10.0,65,0.00,CLR,SKC,0.00,492.0,WeatherDisplay:10.37,2013-01-17 15:57:00,
2013-01-17 10:02:00,49.3,38.4,30.42,NW,320,6.9,6.9,66,0.00,CLR,SKC,0.00,504.0,WeatherDisplay:10.37,2013-01-17 16:02:00,
2013-01-17 10:07:00,49.6,37.5,30.42,NW,309,11.5,11.5,63,0.00,CLR,SKC,0.00,519.0,WeatherDisplay:10.37,2013-01-17 16:07:00,
2013-01-17 10:12:00,49.8,37.7,30.42,NW,317,5.8,5.8,63,0.00,CLR,SKC,0.00,533.0,WeatherDisplay:10.37,2013-01-17 16:12:00,
2013-01-17 10:17:00,49.9,38.2,30.42,NNW,327,6.9,6.9,64,0.00,CLR,SKC,0.00,545.0,WeatherDisplay:10.37,2013-01-17 16:17:00,
2013-01-17 10:22:00,50.1,38.4,30.42,WNW,301,7.0,7.0,64,0.00,CLR,SKC,0.00,555.0,WeatherDisplay:10.37,2013-01-17 16:22:00,
2013-01-17 10:27:00,50.2,38.1,30.42,NW,318,11.5,11.5,63,0.00,CLR,SKC,0.00,564.0,WeatherDisplay:10.37,2013-01-17 16:27:00,
2013-01-17 10:32:00,50.5,38.4,30.42,West,277,6.9,6.9,63,0.00,CLR,SKC,0.00,570.0,WeatherDisplay:10.37,2013-01-17 16:32:00,
2013-01-17 10:37:00,51.0,38.4,30.42,NW,322,10.4,10.4,62,0.00,CLR,SKC,0.00,584.0,WeatherDisplay:10.37,2013-01-17 16:37:00,
2013-01-17 10:42:00,51.3,38.3,30.42,NW,311,8.1,8.1,61,0.00,CLR,SKC,0.00,592.0,WeatherDisplay:10.37,2013-01-17 16:42:00,
2013-01-17 10:47:00,51.8,37.9,30.42,WNW,303,9.2,9.2,59,0.00,CLR,SKC,0.00,608.0,WeatherDisplay:10.37,2013-01-17 16:47:00,
2013-01-17 10:52:00,52.0,37.7,30.42,NNW,336,9.2,9.2,58,0.00,CLR,SKC,0.00,617.0,WeatherDisplay:10.37,2013-01-17 16:52:00,
2013-01-17 10:57:00,51.9,37.1,30.42,NW,324,10.4,10.4,57,0.00,CLR,SKC,0.00,622.0,WeatherDisplay:10.37,2013-01-17 16:57:00,
2013-01-17 11:02:00,52.3,37.5,30.42,WNW,294,6.9,6.9,57,0.00,CLR,SKC,0.00,631.0,WeatherDisplay:10.37,2013-01-17 17:02:00,
2013-01-17 11:07:00,52.8,38.4,30.42,NNW,338,9.2,9.2,58,0.00,CLR,SKC,0.00,640.0,WeatherDisplay:10.37,2013-01-17 17:07:00,
2013-01-17 11:12:00,53.0,37.7,30.41,NNW,329,10.4,10.4,56,0.00,CLR,SKC,0.00,654.0,WeatherDisplay:10.37,2013-01-17 17:12:00,
2013-01-17 11:17:00,53.3,38.4,30.41,NW,312,11.0,11.0,57,0.00,CLR,SKC,0.00,635.0,WeatherDisplay:10.37,2013-01-17 17:17:00,
2013-01-17 11:22:00,53.5,37.7,30.41,NNW,333,9.2,9.2,55,0.00,CLR,SKC,0.00,654.0,WeatherDisplay:10.37,2013-01-17 17:22:00,
2013-01-17 11:27:00,53.7,38.4,30.41,NNW,333,10.4,10.4,56,0.00,CLR,SKC,0.00,673.0,WeatherDisplay:10.37,2013-01-17 17:27:00,
2013-01-17 11:32:00,53.7,38.4,30.41,WNW,301,9.2,9.2,56,0.00,CLR,SKC,0.00,664.0,WeatherDisplay:10.37,2013-01-17 17:32:00,
2013-01-17 11:37:00,53.9,38.6,30.41,NW,305,9.0,9.0,56,0.00,CLR,SKC,0.00,675.0,WeatherDisplay:10.37,2013-01-17 17:37:00,
2013-01-17 11:42:00,54.2,38.8,30.41,NW,317,5.8,6.9,56,0.00,CLR,SKC,0.00,682.0,WeatherDisplay:10.37,2013-01-17 17:42:00,
2013-01-17 11:47:00,54.7,39.3,30.41,WNW,298,10.4,10.4,56,0.00,CLR,SKC,0.00,687.0,WeatherDisplay:10.37,2013-01-17 17:47:00,
2013-01-17 11:52:00,54.9,38.1,30.41,WNW,303,10.0,10.0,53,0.00,CLR,SKC,0.00,700.0,WeatherDisplay:10.37,2013-01-17 17:52:00,
2013-01-17 11:57:00,55.2,37.9,30.40,NW,318,10.4,10.4,52,0.00,CLR,SKC,0.00,700.0,WeatherDisplay:10.37,2013-01-17 17:57:00,
2013-01-17 12:02:00,55.7,37.3,30.40,North,360,10.4,10.4,50,0.00,CLR,SKC,0.00,684.0,WeatherDisplay:10.37,2013-01-17 18:02:00,
2013-01-17 12:07:00,56.0,37.1,30.40,NW,317,12.7,12.7,49,0.00,CLR,SKC,0.00,705.0,WeatherDisplay:10.37,2013-01-17 18:07:00,
2013-01-17 12:12:00,56.0,37.1,30.39,NW,304,11.5,11.5,49,0.00,CLR,SKC,0.00,703.0,WeatherDisplay:10.37,2013-01-17 18:12:00,
2013-01-17 12:17:00,56.1,36.7,30.39,NW,317,10.4,10.4,48,0.00,CLR,SKC,0.00,693.0,WeatherDisplay:10.37,2013-01-17 18:17:00,
2013-01-17 12:22:00,56.4,36.9,30.39,WNW,292,10.4,10.4,48,0.00,CLR,SKC,0.00,698.0,WeatherDisplay:10.37,2013-01-17 18:22:00,
2013-01-17 12:27:00,56.9,36.9,30.39,NW,311,9.2,9.2,47,0.00,CLR,SKC,0.00,701.0,WeatherDisplay:10.37,2013-01-17 18:27:00,
2013-01-17 12:32:00,56.9,37.9,30.39,West,273,5.8,5.8,49,0.00,CLR,SKC,0.00,715.0,WeatherDisplay:10.37,2013-01-17 18:32:00,
2013-01-17 12:37:00,57.1,36.5,30.39,NW,318,9.2,9.2,46,0.00,CLR,SKC,0.00,701.0,WeatherDisplay:10.37,2013-01-17 18:37:00,
2013-01-17 12:42:00,57.2,37.1,30.38,WNW,282,6.0,6.2,47,0.00,CLR,SKC,0.00,703.0,WeatherDisplay:10.37,2013-01-17 18:42:00,
2013-01-17 12:47:00,57.5,37.4,30.38,West,269,10.4,10.4,47,0.00,CLR,SKC,0.00,689.0,WeatherDisplay:10.37,2013-01-17 18:47:00,
2013-01-17 12:52:00,57.8,37.7,30.38,NW,317,9.2,9.2,47,0.00,CLR,SKC,0.00,700.0,WeatherDisplay:10.37,2013-01-17 18:52:00,
2013-01-17 12:57:00,58.0,37.9,30.37,NNW,330,9.2,9.2,47,0.00,CLR,SKC,0.00,700.0,WeatherDisplay:10.37,2013-01-17 18:57:00,
2013-01-17 13:02:00,58.4,38.2,30.37,NNW,340,11.5,11.5,47,0.00,CLR,SKC,0.00,696.0,WeatherDisplay:10.37,2013-01-17 19:02:00,
2013-01-17 13:07:00,58.5,38.3,30.37,NNW,334,8.1,8.1,47,0.00,CLR,SKC,0.00,691.0,WeatherDisplay:10.37,2013-01-17 19:07:00,
2013-01-17 13:12:00,58.8,37.5,30.36,North,10,8.1,8.1,45,0.00,CLR,SKC,0.00,691.0,WeatherDisplay:10.37,2013-01-17 19:12:00,
2013-01-17 13:17:00,59.0,37.7,30.36,NW,304,7.0,7.0,45,0.00,CLR,SKC,0.00,693.0,WeatherDisplay:10.37,2013-01-17 19:17:00,
2013-01-17 13:22:00,58.9,37.6,30.36,WNW,284,9.2,9.2,45,0.00,CLR,SKC,0.00,687.0,WeatherDisplay:10.37,2013-01-17 19:22:00,
2013-01-17 13:27:00,58.9,37.6,30.35,NNW,328,6.0,6.0,45,0.00,CLR,SKC,0.00,677.0,WeatherDisplay:10.37,2013-01-17 19:27:00,
2013-01-17 13:32:00,59.1,37.8,30.35,WNW,301,6.0,6.0,45,0.00,CLR,SKC,0.00,668.0,WeatherDisplay:10.37,2013-01-17 19:32:00,
2013-01-17 13:37:00,59.3,37.9,30.35,NW,319,11.5,11.5,45,0.00,CLR,SKC,0.00,668.0,WeatherDisplay:10.37,2013-01-17 19:37:00,
2013-01-17 13:42:00,59.7,38.9,30.34,NNW,336,9.2,9.2,46,0.00,CLR,SKC,0.00,659.0,WeatherDisplay:10.37,2013-01-17 19:42:00,
2013-01-17 13:47:00,59.7,38.9,30.34,NW,320,12.7,12.7,46,0.00,CLR,SKC,0.00,656.0,WeatherDisplay:10.37,2013-01-17 19:47:00,
2013-01-17 13:52:00,59.5,38.7,30.34,NW,317,10.4,10.4,46,0.00,CLR,SKC,0.00,649.0,WeatherDisplay:10.37,2013-01-17 19:52:00,
2013-01-17 13:57:00,59.6,38.8,30.34,NNE,26,6.9,6.9,46,0.00,CLR,SKC,0.00,642.0,WeatherDisplay:10.37,2013-01-17 19:57:00,
2013-01-17 14:02:00,59.7,38.9,30.34,NW,311,6.9,6.9,46,0.00,CLR,SKC,0.00,621.0,WeatherDisplay:10.37,2013-01-17 20:02:00,
2013-01-17 14:07:00,59.9,39.1,30.34,NNW,348,5.8,5.8,46,0.00,CLR,SKC,0.00,636.0,WeatherDisplay:10.37,2013-01-17 20:07:00,
2013-01-17 14:12:00,60.1,38.7,30.34,NNE,15,6.9,6.9,45,0.00,CLR,SKC,0.00,570.0,WeatherDisplay:10.37,2013-01-17 20:12:00,
2013-01-17 14:17:00,60.1,38.7,30.34,NNE,22,9.2,9.2,45,0.00,CLR,SKC,0.00,605.0,WeatherDisplay:10.37,2013-01-17 20:17:00,
2013-01-17 14:22:00,60.1,38.7,30.34,NE,38,5.8,5.8,45,0.00,CLR,SKC,0.00,598.0,WeatherDisplay:10.37,2013-01-17 20:22:00,
2013-01-17 14:27:00,60.2,38.8,30.34,NW,322,5.0,5.0,45,0.00,CLR,SKC,0.00,589.0,WeatherDisplay:10.37,2013-01-17 20:27:00,
2013-01-17 14:32:00,60.2,39.3,30.34,North,11,4.6,4.6,46,0.00,CLR,SKC,0.00,533.0,WeatherDisplay:10.37,2013-01-17 20:32:00,
2013-01-17 14:37:00,60.2,39.3,30.34,NNE,24,5.8,5.8,46,0.00,CLR,SKC,0.00,499.0,WeatherDisplay:10.37,2013-01-17 20:37:00,
2013-01-17 14:42:00,60.2,41.0,30.34,NNW,327,4.6,4.6,49,0.00,CLR,SKC,0.00,503.0,WeatherDisplay:10.37,2013-01-17 20:42:00,
2013-01-17 14:47:00,60.1,41.4,30.34,ENE,72,6.9,6.9,50,0.00,CLR,SKC,0.00,504.0,WeatherDisplay:10.37,2013-01-17 20:47:00,
2013-01-17 14:52:00,59.8,41.1,30.34,ENE,74,6.9,6.9,50,0.00,CLR,SKC,0.00,452.0,WeatherDisplay:10.37,2013-01-17 20:52:00,
2013-01-17 14:57:00,59.7,41.0,30.34,East,96,9.2,9.2,50,0.00,CLR,SKC,0.00,494.0,WeatherDisplay:10.37,2013-01-17 20:57:00,
2013-01-17 15:02:00,59.5,41.3,30.34,ESE,113,8.1,8.1,51,0.00,CLR,SKC,0.00,515.0,WeatherDisplay:10.37,2013-01-17 21:02:00,
2013-01-17 15:07:00,59.2,41.1,30.34,East,86,6.0,6.0,51,0.00,CLR,SKC,0.00,496.0,WeatherDisplay:10.37,2013-01-17 21:07:00,
2013-01-17 15:12:00,59.1,41.5,30.34,East,82,3.5,3.5,52,0.00,CLR,SKC,0.00,471.0,WeatherDisplay:10.37,2013-01-17 21:12:00,
2013-01-17 15:17:00,59.1,42.0,30.34,ENE,76,4.0,4.0,53,0.00,CLR,SKC,0.00,454.0,WeatherDisplay:10.37,2013-01-17 21:17:00,
2013-01-17 15:22:00,59.1,41.5,30.34,East,82,3.5,3.5,52,0.00,CLR,SKC,0.00,427.0,WeatherDisplay:10.37,2013-01-17 21:22:00,
2013-01-17 15:27:00,59.0,40.9,30.35,East,101,3.5,3.5,51,0.00,CLR,SKC,0.00,371.0,WeatherDisplay:10.37,2013-01-17 21:27:00,
2013-01-17 15:32:00,59.1,41.0,30.35,East,98,5.8,5.8,51,0.00,CLR,SKC,0.00,410.0,WeatherDisplay:10.37,2013-01-17 21:32:00,
2013-01-17 15:37:00,59.0,41.4,30.35,East,88,4.0,4.0,52,0.00,CLR,SKC,0.00,348.0,WeatherDisplay:10.37,2013-01-17 21:37:00,
2013-01-17 15:42:00,58.9,40.8,30.34,ESE,110,5.0,5.0,51,0.00,CLR,SKC,0.00,381.0,WeatherDisplay:10.37,2013-01-17 21:42:00,
2013-01-17 15:47:00,58.8,40.2,30.34,East,91,5.8,5.8,50,0.00,CLR,SKC,0.00,387.0,WeatherDisplay:10.37,2013-01-17 21:47:00,
2013-01-17 15:52:00,58.6,39.5,30.34,East,92,6.9,6.9,49,0.00,CLR,SKC,0.00,373.0,WeatherDisplay:10.37,2013-01-17 21:52:00,
2013-01-17 15:57:00,58.4,39.3,30.35,East,79,6.9,6.9,49,0.00,CLR,SKC,0.00,357.0,WeatherDisplay:10.37,2013-01-17 21:57:00,
2013-01-17 16:02:00,58.4,39.3,30.35,ENE,71,4.6,4.6,49,0.00,CLR,SKC,0.00,339.0,WeatherDisplay:10.37,2013-01-17 22:02:00,
2013-01-17 16:07:00,58.2,39.6,30.35,ENE,63,5.8,5.8,50,0.00,CLR,SKC,0.00,323.0,WeatherDisplay:10.37,2013-01-17 22:07:00,
2013-01-17 16:12:00,57.9,39.4,30.35,East,97,10.4,10.4,50,0.00,CLR,SKC,0.00,309.0,WeatherDisplay:10.37,2013-01-17 22:12:00,
2013-01-17 16:17:00,57.6,40.6,30.35,ESE,107,6.9,6.9,53,0.00,CLR,SKC,0.00,294.0,WeatherDisplay:10.37,2013-01-17 22:17:00,
2013-01-17 16:22:00,57.1,41.5,30.35,East,95,6.9,6.9,56,0.00,CLR,SKC,0.00,278.0,WeatherDisplay:10.37,2013-01-17 22:22:00,
2013-01-17 16:27:00,56.9,42.7,30.36,East,84,4.6,4.6,59,0.00,CLR,SKC,0.00,262.0,WeatherDisplay:10.37,2013-01-17 22:27:00,
2013-01-17 16:32:00,57.0,41.4,30.36,East,90,7.0,7.0,56,0.00,CLR,SKC,0.00,214.0,WeatherDisplay:10.37,2013-01-17 22:32:00,
2013-01-17 16:37:00,57.0,41.0,30.36,East,89,4.0,4.0,55,0.00,CLR,SKC,0.00,200.0,WeatherDisplay:10.37,2013-01-17 22:37:00,
2013-01-17 16:42:00,57.0,41.0,30.36,ENE,69,4.6,4.6,55,0.00,CLR,SKC,0.00,220.0,WeatherDisplay:10.37,2013-01-17 22:42:00,
2013-01-17 16:47:00,56.8,41.7,30.36,ENE,63,4.6,4.6,57,0.00,CLR,SKC,0.00,202.0,WeatherDisplay:10.37,2013-01-17 22:47:00,
2013-01-17 16:52:00,56.6,43.3,30.36,East,91,4.0,4.0,61,0.00,CLR,SKC,0.00,188.0,WeatherDisplay:10.37,2013-01-17 22:52:00,
2013-01-17 16:57:00,56.4,43.5,30.36,SE,125,4.6,4.6,62,0.00,CLR,SKC,0.00,174.0,WeatherDisplay:10.37,2013-01-17 22:57:00,
2013-01-17 17:02:00,56.2,44.2,30.36,East,98,4.6,4.6,64,0.00,CLR,SKC,0.00,26.0,WeatherDisplay:10.37,2013-01-17 23:02:00,
2013-01-17 17:07:00,56.2,44.6,30.36,East,97,3.5,3.6,65,0.00,CLR,SKC,0.00,25.0,WeatherDisplay:10.37,2013-01-17 23:07:00,
2013-01-17 17:12:00,56.1,45.3,30.37,ESE,112,3.5,3.5,67,0.00,CLR,SKC,0.00,25.0,WeatherDisplay:10.37,2013-01-17 23:12:00,
2013-01-17 17:17:00,56.1,45.7,30.37,ESE,123,4.6,4.6,68,0.00,CLR,SKC,0.00,23.0,WeatherDisplay:10.37,2013-01-17 23:17:00,
2013-01-17 17:22:00,55.9,44.7,30.37,SE,126,4.0,4.0,66,0.00,CLR,SKC,0.00,21.0,WeatherDisplay:10.37,2013-01-17 23:22:00,
2013-01-17 17:27:00,55.9,44.7,30.38,ESE,121,4.6,4.6,66,0.00,CLR,SKC,0.00,18.0,WeatherDisplay:10.37,2013-01-17 23:27:00,
2013-01-17 17:32:00,55.8,45.4,30.38,SE,126,3.5,3.5,68,0.00,CLR,SKC,0.00,16.0,WeatherDisplay:10.37,2013-01-17 23:32:00,
2013-01-17 17:37:00,55.7,45.7,30.38,SE,125,2.3,2.3,69,0.00,CLR,SKC,0.00,14.0,WeatherDisplay:10.37,2013-01-17 23:37:00,
2013-01-17 17:42:00,55.6,45.6,30.38,SE,125,1.1,1.1,69,0.00,CLR,SKC,0.00,12.0,WeatherDisplay:10.37,2013-01-17 23:42:00,
2013-01-17 17:47:00,55.5,44.7,30.38,SE,124,2.3,2.3,67,0.00,CLR,SKC,0.00,11.0,WeatherDisplay:10.37,2013-01-17 23:47:00,
2013-01-17 17:52:00,55.5,45.5,30.38,SE,124,1.1,1.1,69,0.00,CLR,SKC,0.00,7.0,WeatherDisplay:10.37,2013-01-17 23:52:00,
2013-01-17 17:57:00,55.3,44.9,30.38,SSE,150,2.3,0.0,68,0.00,CLR,SKC,0.00,0.0,WeatherDisplay:10.37,2013-01-17 23:57:00,
2013-01-17 18:02:00,55.3,44.9,30.38,SSE,154,3.0,3.0,68,0.00,CLR,SKC,0.00,0.0,WeatherDisplay:10.37,2013-01-18 00:02:00,
2013-01-17 18:07:00,55.1,45.1,30.38,SSE,153,2.3,2.3,69,0.00,CLR,SKC,0.00,0.0,WeatherDisplay:10.37,2013-01-18 00:07:00,
2013-01-17 18:12:00,55.0,45.4,30.39,SSE,153,1.1,1.1,70,0.00,CLR,SKC,0.00,0.0,WeatherDisplay:10.37,2013-01-18 00:12:00,
2013-01-17 18:17:00,54.9,46.0,30.39,SSE,157,2.0,2.0,72,0.00,CLR,SKC,0.00,0.0,WeatherDisplay:10.37,2013-01-18 00:17:00,
2013-01-17 18:22:00,54.8,46.3,30.39,SSE,157,1.1,0.0,73,0.00,CLR,SKC,0.00,0.0,WeatherDisplay:10.37,2013-01-18 00:22:00,
2013-01-17 18:27:00,54.6,46.1,30.39,SSE,157,0.0,0.1,73,0.00,CLR,SKC,0.00,0.0,WeatherDisplay:10.37,2013-01-18 00:27:00,
2013-01-17 18:32:00,54.4,46.3,30.39,SSE,157,0.0,0.0,74,0.00,CLR,SKC,0.00,0.0,WeatherDisplay:10.37,2013-01-18 00:32:00,
2013-01-17 18:37:00,54.3,46.2,30.39,SSE,157,0.0,0.1,74,0.00,CLR,SKC,0.00,0.0,WeatherDisplay:10.37,2013-01-18 00:37:00,
2013-01-17 18:42:00,54.1,46.3,30.40,SSE,158,1.1,0.0,75,0.00,CLR,SKC,0.00,0.0,WeatherDisplay:10.37,2013-01-18 00:42:00,
2013-01-17 18:47:00,54.0,46.6,30.40,SSE,158,0.0,0.0,76,0.00,CLR,SKC,0.00,0.0,WeatherDisplay:10.37,2013-01-18 00:47:00,
2013-01-17 18:52:00,53.9,46.5,30.40,SSE,158,0.0,0.0,76,0.00,CLR,SKC,0.00,0.0,WeatherDisplay:10.37,2013-01-18 00:52:00,
2013-01-17 18:57:00,53.7,46.7,30.41,SSE,158,0.0,0.0,77,0.00,CLR,SKC,0.00,0.0,WeatherDisplay:10.37,2013-01-18 00:57:00,
2013-01-17 19:02:00,53.6,46.6,30.41,SSE,158,1.1,1.1,77,0.00,CLR,SKC,0.00,0.0,WeatherDisplay:10.37,2013-01-18 01:02:00,
2013-01-17 19:07:00,53.4,46.7,30.41,SSE,158,1.1,0.0,78,0.00,CLR,SKC,0.00,0.0,WeatherDisplay:10.37,2013-01-18 01:07:00,
2013-01-17 19:12:00,53.2,46.5,30.41,SSE,158,0.0,0.0,78,0.00,CLR,SKC,0.00,0.0,WeatherDisplay:10.37,2013-01-18 01:12:00,
2013-01-17 19:17:00,53.1,46.8,30.41,SSE,158,0.0,0.0,79,0.00,CLR,SKC,0.00,0.0,WeatherDisplay:10.37,2013-01-18 01:17:00,
2013-01-17 19:22:00,53.0,46.7,30.41,SSE,158,0.0,0.0,79,0.00,CLR,SKC,0.00,0.0,WeatherDisplay:10.37,2013-01-18 01:22:00,
2013-01-17 19:27:00,53.0,46.7,30.41,SSE,158,0.0,0.0,79,0.00,CLR,SKC,0.00,0.0,WeatherDisplay:10.37,2013-01-18 01:27:00,
2013-01-17 19:32:00,52.8,46.8,30.41,SSE,158,0.0,0.0,80,0.00,CLR,SKC,0.00,0.0,WeatherDisplay:10.37,2013-01-18 01:32:00,
2013-01-17 19:37:00,52.7,46.7,30.41,SSE,158,0.0,0.0,80,0.00,CLR,SKC,0.00,0.0,WeatherDisplay:10.37,2013-01-18 01:37:00,
2013-01-17 19:42:00,52.6,46.6,30.41,SSE,158,0.0,0.0,80,0.00,CLR,SKC,0.00,0.0,WeatherDisplay:10.37,2013-01-18 01:42:00,
2013-01-17 19:47:00,52.6,46.6,30.41,SSE,158,0.0,0.0,80,0.00,CLR,SKC,0.00,0.0,WeatherDisplay:10.37,2013-01-18 01:47:00,
2013-01-17 19:52:00,52.5,46.5,30.41,SSE,158,0.0,0.0,80,0.00,CLR,SKC,0.00,0.0,WeatherDisplay:10.37,2013-01-18 01:52:00,
2013-01-17 19:57:00,52.4,46.4,30.42,SSE,158,0.0,0.0,80,0.00,CLR,SKC,0.00,0.0,WeatherDisplay:10.37,2013-01-18 01:57:00,
2013-01-17 20:02:00,52.3,46.3,30.42,SSE,158,0.0,0.0,80,0.00,CLR,SKC,0.00,0.0,WeatherDisplay:10.37,2013-01-18 02:02:00,
2013-01-17 20:07:00,52.1,45.8,30.42,SSE,158,0.0,0.0,79,0.00,CLR,SKC,0.00,0.0,WeatherDisplay:10.37,2013-01-18 02:07:00,
2013-01-17 20:12:00,52.1,45.8,30.42,SSE,158,0.0,0.0,79,0.00,CLR,SKC,0.00,0.0,WeatherDisplay:10.37,2013-01-18 02:12:00,
2013-01-17 20:17:00,52.1,45.8,30.42,SSE,158,0.0,0.0,79,0.00,CLR,SKC,0.00,0.0,WeatherDisplay:10.37,2013-01-18 02:17:00,
2013-01-17 20:22:00,52.0,45.7,30.42,SSE,158,0.0,0.0,79,0.00,CLR,SKC,0.00,0.0,WeatherDisplay:10.37,2013-01-18 02:22:00,
2013-01-17 20:27:00,51.9,45.9,30.42,SSE,158,0.0,0.0,80,0.00,CLR,SKC,0.00,0.0,WeatherDisplay:10.37,2013-01-18 02:27:00,
2013-01-17 20:32:00,52.0,46.0,30.42,SSE,158,0.0,0.0,80,0.00,CLR,SKC,0.00,0.0,WeatherDisplay:10.37,2013-01-18 02:32:00,
2013-01-17 20:37:00,52.0,46.0,30.42,SSE,158,0.0,0.0,80,0.00,CLR,SKC,0.00,0.0,WeatherDisplay:10.37,2013-01-18 02:37:00,
2013-01-17 20:42:00,51.9,45.9,30.42,SSE,158,0.0,0.0,80,0.00,CLR,SKC,0.00,0.0,WeatherDisplay:10.37,2013-01-18 02:42:00,
2013-01-17 20:47:00,51.8,45.8,30.42,SSE,158,0.0,0.0,80,0.00,CLR,SKC,0.00,0.0,WeatherDisplay:10.37,2013-01-18 02:47:00,
2013-01-17 20:52:00,51.7,45.7,30.42,SSE,158,0.0,0.0,80,0.00,CLR,SKC,0.00,0.0,WeatherDisplay:10.37,2013-01-18 02:52:00,
2013-01-17 20:57:00,51.6,45.6,30.42,SSE,158,0.0,0.0,80,0.00,CLR,SKC,0.00,0.0,WeatherDisplay:10.37,2013-01-18 02:57:00,
2013-01-17 21:02:00,51.4,45.4,30.42,SSE,158,0.0,0.0,80,0.00,CLR,SKC,0.00,0.0,WeatherDisplay:10.37,2013-01-18 03:02:00,
2013-01-17 21:07:00,51.4,45.4,30.42,SSE,158,0.0,0.0,80,0.00,CLR,SKC,0.00,0.0,WeatherDisplay:10.37,2013-01-18 03:07:00,
2013-01-17 21:12:00,51.4,45.4,30.43,SSE,158,0.0,0.0,80,0.00,CLR,SKC,0.00,0.0,WeatherDisplay:10.37,2013-01-18 03:12:00,
2013-01-17 21:17:00,51.4,45.4,30.43,SSE,158,0.0,0.0,80,0.00,CLR,SKC,0.00,0.0,WeatherDisplay:10.37,2013-01-18 03:17:00,
2013-01-17 21:22:00,51.4,45.1,30.43,SSE,158,0.0,0.0,79,0.00,CLR,SKC,0.00,0.0,WeatherDisplay:10.37,2013-01-18 03:22:00,
2013-01-17 21:27:00,51.4,45.1,30.43,SSE,158,0.0,0.0,79,0.00,CLR,SKC,0.00,0.0,WeatherDisplay:10.37,2013-01-18 03:27:00,
2013-01-17 21:32:00,51.5,45.5,30.43,SSE,158,0.0,0.0,80,0.00,CLR,SKC,0.00,0.0,WeatherDisplay:10.37,2013-01-18 03:32:00,
2013-01-17 21:37:00,51.5,45.5,30.43,SSE,158,0.0,0.0,80,0.00,CLR,SKC,0.00,0.0,WeatherDisplay:10.37,2013-01-18 03:37:00,
2013-01-17 21:42:00,51.5,45.9,30.43,SSE,158,0.0,0.0,81,0.00,CLR,SKC,0.00,0.0,WeatherDisplay:10.37,2013-01-18 03:42:00,
2013-01-17 21:47:00,51.4,46.1,30.43,SSE,158,0.0,0.0,82,0.00,CLR,SKC,0.00,0.0,WeatherDisplay:10.37,2013-01-18 03:47:00,
2013-01-17 21:52:00,51.3,46.3,30.43,SSE,158,0.0,0.0,83,0.00,CLR,SKC,0.00,0.0,WeatherDisplay:10.37,2013-01-18 03:52:00,
2013-01-17 21:57:00,51.2,46.2,30.43,SSE,158,0.0,0.0,83,0.00,CLR,SKC,0.00,0.0,WeatherDisplay:10.37,2013-01-18 03:57:00,
2013-01-17 22:02:00,51.1,46.4,30.43,SSE,158,0.0,0.0,84,0.00,CLR,SKC,0.00,0.0,WeatherDisplay:10.37,2013-01-18 04:02:00,
2013-01-17 22:07:00,51.1,46.7,30.43,SSE,158,0.0,0.0,85,0.00,CLR,SKC,0.00,0.0,WeatherDisplay:10.37,2013-01-18 04:07:00,
2013-01-17 22:12:00,51.0,46.6,30.43,SSE,158,0.0,0.0,85,0.00,CLR,SKC,0.00,0.0,WeatherDisplay:10.37,2013-01-18 04:12:00,
2013-01-17 22:17:00,51.0,46.6,30.43,SSE,158,0.0,0.0,85,0.00,CLR,SKC,0.00,0.0,WeatherDisplay:10.37,2013-01-18 04:17:00,
2013-01-17 22:22:00,50.9,46.6,30.43,SSE,158,0.0,0.0,85,0.00,CLR,SKC,0.00,0.0,WeatherDisplay:10.37,2013-01-18 04:22:00,
2013-01-17 22:27:00,50.7,46.4,30.43,SSE,158,0.0,0.0,85,0.00,CLR,SKC,0.00,0.0,WeatherDisplay:10.37,2013-01-18 04:27:00,
2013-01-17 22:32:00,50.5,46.2,30.43,SSE,158,0.0,0.0,85,0.00,CLR,SKC,0.00,0.0,WeatherDisplay:10.37,2013-01-18 04:32:00,
2013-01-17 22:37:00,50.3,46.3,30.43,SSE,158,0.0,0.0,86,0.00,CLR,SKC,0.00,0.0,WeatherDisplay:10.37,2013-01-18 04:37:00,
2013-01-17 22:42:00,50.1,46.1,30.43,SSE,158,0.0,0.0,86,0.00,CLR,SKC,0.00,0.0,WeatherDisplay:10.37,2013-01-18 04:42:00,
2013-01-17 22:47:00,50.0,46.0,30.43,SSE,158,0.0,0.0,86,0.00,CLR,SKC,0.00,0.0,WeatherDisplay:10.37,2013-01-18 04:47:00,
2013-01-17 22:52:00,49.8,46.1,30.43,SSE,158,0.0,0.0,87,0.00,CLR,SKC,0.00,0.0,WeatherDisplay:10.37,2013-01-18 04:52:00,
2013-01-17 22:57:00,49.6,45.9,30.43,SSE,158,0.0,0.0,87,0.00,CLR,SKC,0.00,0.0,WeatherDisplay:10.37,2013-01-18 04:57:00,
2013-01-17 23:01:00,49.6,45.9,30.43,SSE,158,0.0,0.0,87,0.00,CLR,SKC,0.00,0.0,WeatherDisplay:10.37,2013-01-18 05:01:00,
2013-01-17 23:03:00,49.6,46.2,30.43,SSE,158,0.0,0.0,88,0.00,CLR,SKC,0.00,0.0,WeatherDisplay:10.37,2013-01-18 05:03:00,
2013-01-17 23:08:00,49.8,46.4,30.43,SSE,158,0.0,0.0,88,0.00,CLR,SKC,0.00,0.0,WeatherDisplay:10.37,2013-01-18 05:08:00,
2013-01-17 23:13:00,49.8,46.4,30.43,SSE,158,0.0,0.0,88,0.00,CLR,SKC,0.00,0.0,WeatherDisplay:10.37,2013-01-18 05:13:00,
2013-01-17 23:18:00,49.8,46.4,30.43,SSE,158,0.0,0.0,88,0.00,CLR,SKC,0.00,0.0,WeatherDisplay:10.37,2013-01-18 05:18:00,
2013-01-17 23:23:00,49.7,46.3,30.43,SSE,158,0.0,0.0,88,0.00,CLR,SKC,0.00,0.0,WeatherDisplay:10.37,2013-01-18 05:23:00,
2013-01-17 23:28:00,49.5,46.1,30.43,SSE,158,0.0,0.0,88,0.00,CLR,SKC,0.00,0.0,WeatherDisplay:10.37,2013-01-18 05:28:00,
2013-01-17 23:33:00,49.4,46.0,30.43,SSE,158,0.0,0.0,88,0.00,CLR,SKC,0.00,0.0,WeatherDisplay:10.37,2013-01-18 05:33:00,
2013-01-17 23:38:00,49.4,46.0,30.43,SSE,158,0.0,0.0,88,0.00,CLR,SKC,0.00,0.0,WeatherDisplay:10.37,2013-01-18 05:38:00,
2013-01-17 23:43:00,49.2,45.8,30.43,SSE,158,0.0,0.0,88,0.00,CLR,SKC,0.00,0.0,WeatherDisplay:10.37,2013-01-18 05:43:00,
2013-01-17 23:48:00,49.2,45.8,30.43,SSE,158,0.0,0.0,88,0.00,CLR,SKC,0.00,0.0,WeatherDisplay:10.37,2013-01-18 05:48:00,
2013-01-17 23:53:00,49.0,45.6,30.43,SSE,158,0.0,0.0,88,0.00,CLR,SKC,0.00,0.0,WeatherDisplay:10.37,2013-01-18 05:53:00,
2013-01-17 23:58:00,49.0,45.9,30.42,SSE,158,0.0,0.0,89,0.00,CLR,SKC,0.00,0.0,WeatherDisplay:10.37,2013-01-18 05:58:00,